Flight Track Log - Related Links

Times and Time Zones

All times are in EDT time to prevent confusion due to time zone crossing. See the AMX526 flight status page for this flight to view local times or setup timezone preferences in your user account.

Time Position Orientation Groundspeed Altitude Reporting Facility
EDT Latitude Longitude Course Direction KTS MPH feet Rate Location/Type
Sat 08:59:00 PM 20.8613 -90.2276 262° West  Level Estimated
Sat 09:00:00 PM 20.8485 -90.3226 262° West  Level Estimated
Sat 09:01:00 PM 20.8356 -90.4175 262° West  Level Estimated
Sat 09:02:00 PM 20.8227 -90.5124 262° West  Level Estimated
Sat 09:03:00 PM 20.8098 -90.6073 262° West  Level Estimated
Sat 09:04:00 PM 20.7968 -90.7022 262° West  Level Estimated
Sat 09:05:00 PM 20.7837 -90.7970 262° West  Level Estimated
Sat 09:06:00 PM 20.7706 -90.8919 262° West  Level Estimated
Sat 09:07:00 PM 20.7574 -90.9867 262° West  Level Estimated
Sat 09:08:00 PM 20.7442 -91.0815 262° West  Level Estimated
Sat 09:09:00 PM 20.7309 -91.1763 262° West  Level Estimated
Sat 09:10:00 PM 20.7176 -91.2711 261° West  Level Estimated
Sat 09:11:00 PM 20.7042 -91.3658 261° West  Level Estimated
Sat 09:12:00 PM 20.6908 -91.4606 261° West  Level Estimated
Sat 09:13:00 PM 20.6773 -91.5553 261° West  Level Estimated
Sat 09:14:00 PM 20.6638 -91.6500 261° West  Level Estimated
Sat 09:15:00 PM 20.6502 -91.7447 261° West  Level Estimated
Sat 09:16:00 PM 20.6366 -91.8393 261° West  Level Estimated
Sat 09:17:00 PM 20.6229 -91.9340 261° West  Level Estimated
Sat 09:18:00 PM 20.6092 -92.0286 261° West  Level Estimated
Sat 09:19:00 PM 20.5954 -92.1233 261° West  Level Estimated
Sat 09:20:00 PM 20.5816 -92.2179 261° West  Level Estimated
Sat 09:21:00 PM 20.5677 -92.3125 261° West  Level Estimated
Sat 09:22:00 PM 20.5537 -92.4070 261° West  Level Estimated
Sat 09:23:00 PM 20.5397 -92.5016 261° West  Level Estimated
Sat 09:24:00 PM 20.5257 -92.5961 261° West  Level Estimated
Sat 09:25:00 PM 20.5116 -92.6907 261° West  Level Estimated
Sat 09:26:00 PM 20.4975 -92.7851 261° West  Level Estimated
Sat 09:27:00 PM 20.4833 -92.8796 261° West  Level Estimated
Sat 09:28:00 PM 20.4690 -92.9741 261° West  Level Estimated
Sat 09:29:00 PM 20.4547 -93.0686 261° West  Level Estimated
Sat 09:30:00 PM 20.4404 -93.1630 261° West  Level Estimated
Sat 09:31:00 PM 20.4260 -93.2574 261° West  Level Estimated
Sat 09:32:00 PM 20.4115 -93.3518 261° West  Level Estimated
Sat 09:33:00 PM 20.3970 -93.4462 261° West  Level Estimated
Sat 09:34:00 PM 20.3825 -93.5405 261° West  Level Estimated
Sat 09:35:00 PM 20.3679 -93.6349 261° West  Level Estimated
Sat 09:36:00 PM 20.3532 -93.7292 261° West  Level Estimated
Sat 09:37:00 PM 20.3385 -93.8235 261° West  Level Estimated
Sat 09:38:00 PM 20.3237 -93.9178 261° West  Level Estimated
Sat 09:39:00 PM 20.3089 -94.0121 261° West  Level Estimated
Sat 09:40:00 PM 20.2941 -94.1063 260° West  Level Estimated
Sat 09:41:00 PM 20.2792 -94.2005 260° West  Level Estimated
Sat 09:42:00 PM 20.2642 -94.2948 260° West  Level Estimated
Sat 09:43:00 PM 20.2492 -94.3890 260° West  Level Estimated
Sat 09:44:00 PM 20.2341 -94.4831 260° West  Level Estimated
Sat 09:45:00 PM 20.2190 -94.5773 260° West  Level Estimated
Sat 09:46:00 PM 20.2039 -94.6714 260° West  Level Estimated
Sat 09:47:00 PM 20.1887 -94.7656 260° West  Level Estimated
Sat 09:48:00 PM 20.1734 -94.8597 260° West  Level Estimated
Sat 09:49:00 PM 20.1581 -94.9538 260° West  Level Estimated
Sat 09:50:00 PM 20.1427 -95.0478 260° West  Level Estimated
Sat 09:51:00 PM 20.1273 -95.1419 260° West  Level Estimated
Sat 09:52:00 PM 20.1119 -95.2359 260° West  Level Estimated
Sat 09:53:00 PM 20.0963 -95.3299 260° West  Level Estimated
Sat 09:54:00 PM 20.0808 -95.4239 260° West  Level Estimated
Sat 09:55:00 PM 20.0652 -95.5179 260° West  Level Estimated
Sat 09:56:00 PM 20.0495 -95.6119 260° West  Level Estimated
Sat 09:57:00 PM 20.0338 -95.7058 260° West  Level Estimated
Sat 09:58:00 PM 20.0180 -95.7997 260° West  Level Estimated
Sat 09:59:00 PM 20.0022 -95.8936 260° West  Level Estimated
Sat 10:00:00 PM 19.9864 -95.9875 260° West  Level Estimated
Sat 10:01:00 PM 19.9705 -96.0814 260° West  Level Estimated
Sat 10:02:00 PM 19.9545 -96.1752 260° West  Level Estimated
Sat 10:03:00 PM 19.9385 -96.2691 260° West  Level Estimated
Sat 10:04:00 PM 19.9225 -96.3629 260° West  Level Estimated
Sat 10:05:00 PM 19.9064 -96.4566 260° West  Level Estimated
Sat 10:06:00 PM 19.8902 -96.5504 260° West  Level Estimated
Sat 10:07:00 PM 19.8740 -96.6442 260° West  Level Estimated
Sat 10:08:00 PM 19.8578 -96.7379 260° West  Level Estimated
Sat 10:09:00 PM 19.8415 -96.8316 260° West  Level Estimated
Sat 10:10:00 PM 19.8251 -96.9253 260° West  Level Estimated
Sat 10:11:00 PM 19.8087 -97.0190 259° West  Level Estimated
Sat 10:12:00 PM 19.7923 -97.1126 259° West  Level Estimated
Sat 10:13:00 PM 19.7758 -97.2063 259° West  Level Estimated
Sat 10:14:00 PM 19.7593 -97.2999 259° West  Level Estimated
Sat 10:15:00 PM 19.7427 -97.3935 259° West  Level Estimated
Sat 10:16:00 PM 19.7260 -97.4870 259° West  Level Estimated
Sat 10:17:00 PM 19.7094 -97.5806 259° West  Level Estimated
Sat 10:18:00 PM 19.6926 -97.6741 259° West  Level Estimated
Sat 10:19:00 PM 19.6758 -97.7677 259° West  Level Estimated
Sat 10:20:00 PM 19.6590 -97.8612 259° West  Level Estimated
Sat 10:21:00 PM 19.6421 -97.9546 259° West  Level Estimated
Sat 10:22:00 PM 19.6252 -98.0481 259° West  Level Estimated
Sat 10:23:00 PM 19.6082 -98.1415 259° West  Level Estimated
Sat 10:24:00 PM 19.5912 -98.2350 259° West  Level Estimated
Sat 10:25:00 PM 19.5741 -98.3284 259° West  Level Estimated
Sat 10:26:00 PM 19.5570 -98.4217 259° West  Level Estimated
Sat 10:27:00 PM 19.5398 -98.5151 259° West  Level Estimated
Sat 10:28:00 PM 19.5226 -98.6084 259° West  Level Estimated
Sat 10:29:00 PM 19.5053 -98.7018 259° West  Level Estimated
Sat 10:30:00 PM 19.4880 -98.7951 259° West  Level Estimated
Sat 10:31:00 PM 19.4707 -98.8883 259° West  Level Estimated
Sat 10:32:00 PM 19.4533 -98.9816 259° West  Level Estimated
Sat 10:33:00 PM 19.4363 -99.0721 259° West  Level Estimated
Sat 10:34:00 PM 19.4363 -99.0721 43° Northeast  Level Estimated
Sat 10:35:00 PM 19.4363 -99.0721 43° Northeast  Level Estimated
Sat 10:36:00 PM 19.4363 -99.0721 43° Northeast  Level Estimated
Sat 10:37:00 PM 19.4363 -99.0721 43° Northeast  Level Estimated
Sat 10:38:00 PM 19.4363 -99.0721 43° Northeast  Level Estimated
Sat 10:39:00 PM 19.4363 -99.0721 43° Northeast  Level Estimated
Sat 10:40:00 PM 19.4363 -99.0721 43° Northeast  Level Estimated
Sat 10:41:00 PM 19.4363 -99.0721 43° Northeast  Level Estimated
Sat 10:42:00 PM 19.4363 -99.0721 43° Northeast  Level Estimated
Sat 10:43:00 PM 19.4363 -99.0721 43° Northeast  Level Estimated
Sat 10:44:00 PM 19.4363 -99.0721 43° Northeast  Level Estimated
Sat 10:45:00 PM 19.4363 -99.0721 43° Northeast  Level Estimated
Sat 10:46:00 PM 19.4363 -99.0721 43° Northeast  Level Estimated
Sat 10:47:00 PM 19.4363 -99.0721 43° Northeast  Level Estimated
Sat 10:48:00 PM 19.4363 -99.0721 43° Northeast  Level Estimated
Sat 10:49:00 PM 19.4363 -99.0721 43° Northeast  Level Estimated

Login

Don't have an account? Register now (free) for customized features, flight alerts, and more!